Belle Chasse — WDG2912 — position and weather

sailwx.info

Track history (hours):
 
Tides and Currents Weather Stations Pressure Air Temp Water Temp Dewpoint Dewpoint Depression Visibility Wind Speed Wind Dir Waves Ship Positions

Belle Chasse

Owner: Higman Barge Lines, Inc, Orange, TX. More information available from US FCC via Universal Licensing System and Coast Guard Vessel Documentation Center.

Last reported at 2016-Nov-28 07:11 UTC. Time now 2016-Dec-09 21:20 UTC.
Position N 30°04' W 093°41'.
Warning: this ship's position is 11 days out of date.

Length 26 m; draft 3 m.

Type: Towing. MMSI: 367520550.

Date/timePositionNaut miles runAvg speedWind from/ knotsBaromVisibWave heightAir tempDewpointWater temp
2016-Nov-28 07:11N 30°04' W 093°41'3 4.6
2016-Nov-28 06:33N 30°04' W 093°37'5 4.8
2016-Nov-28 05:33N 30°04' W 093°32'5 4.7
2016-Nov-28 04:33N 30°04' W 093°26'4 4.2
2016-Nov-28 03:33N 30°04' W 093°22'4 3.7
2016-Nov-28 02:33N 30°06' W 093°18'2 2.2
2016-Nov-28 01:34N 30°04' W 093°16'4 3.5
2016-Nov-28 00:33N 30°02' W 093°14'4 4.3
2016-Nov-27 23:33N 29°58' W 093°11'4 4.3
2016-Nov-27 22:32N 29°56' W 093°07'34 4.8
2016-Nov-27 15:31N 29°54' W 092°28'4 4.5
2016-Nov-27 14:33N 29°53' W 092°23'4 4.0
2016-Nov-27 13:33N 29°50' W 092°20'3 3.4
2016-Nov-27 12:33N 29°49' W 092°16'5 4.7
2016-Nov-27 11:33N 29°47' W 092°11'5 4.5
2016-Nov-27 10:33N 29°48' W 092°06'5 4.6
2016-Nov-27 09:33N 29°49' W 092°01'5 4.5
2016-Nov-27 08:33N 29°51' W 091°56'4 3.9
2016-Nov-27 07:29N 29°51' W 091°52'4 4.0
2016-Nov-27 06:30N 29°47' W 091°49'  
2016-Nov-24 14:27N 29°46' W 091°39'5 5.6
2016-Nov-24 13:34N 29°46' W 091°45'5 5.2
2016-Nov-24 12:33N 29°49' W 091°49'1 1.3
2016-Nov-24 11:27N 29°50' W 091°50'2 2.6
2016-Nov-24 10:33N 29°51' W 091°53'5 5.3
2016-Nov-24 09:32N 29°50' W 091°59'0 0.0
2016-Nov-24 08:32N 29°50' W 091°59'0 0.0
2016-Nov-24 07:32N 29°50' W 091°59'0 0.0
2016-Nov-24 06:29N 29°50' W 091°59'0 0.0
2016-Nov-24 05:32N 29°50' W 091°59'5 5.2
2016-Nov-24 04:33N 29°48' W 092°04'6 5.6
2016-Nov-24 03:33N 29°47' W 092°10'3 2.7
2016-Nov-24 02:33N 29°48' W 092°13'1 1.2
2016-Nov-24 01:32N 29°48' W 092°15'2 1.7
2016-Nov-24 00:32N 29°49' W 092°16'0 0.0
2016-Nov-23 23:31N 29°49' W 092°16'3 3.6
2016-Nov-23 22:34N 29°51' W 092°20'6 6.2
2016-Nov-23 21:33N 29°53' W 092°26'31 4.9
2016-Nov-23 15:17N 29°56' W 093°01'4 6.1
2016-Nov-23 14:33N 29°56' W 093°07'5 4.9
2016-Nov-23 13:33N 29°58' W 093°12'5 5.2
2016-Nov-23 12:33N 30°02' W 093°16'4 3.4
2016-Nov-23 11:32N 30°05' W 093°18'1 1.2
2016-Nov-23 10:31N 30°06' W 093°19'0 0.0
2016-Nov-23 09:31N 30°06' W 093°19'0 0.0
2016-Nov-23 08:33N 30°06' W 093°19'5 4.5
2016-Nov-23 07:33N 30°04' W 093°23'6 5.6
2016-Nov-23 06:33N 30°04' W 093°30'  
Track history (hours):
 
Tides and Currents Weather Stations Pressure Air Temp Water Temp Dewpoint Dewpoint Depression Visibility Wind Speed Wind Dir Waves Ship Positions

Belle Chasse

Owner: Higman Barge Lines, Inc, Orange, TX. More information available from US FCC via Universal Licensing System and Coast Guard Vessel Documentation Center.

Last reported at 2016-Nov-28 07:11 UTC. Time now 2016-Dec-09 21:20 UTC.
Position N 30°04' W 093°41'.
Warning: this ship's position is 11 days out of date.

Length 26 m; draft 3 m.

Type: Towing. MMSI: 367520550.

Date/timePositionNaut miles runAvg speedWind from/ knotsBaromVisibWave heightAir tempDewpointWater temp
2016-Nov-28 07:11N 30°04' W 093°41'3 4.6
2016-Nov-28 06:33N 30°04' W 093°37'5 4.8
2016-Nov-28 05:33N 30°04' W 093°32'5 4.7
2016-Nov-28 04:33N 30°04' W 093°26'4 4.2
2016-Nov-28 03:33N 30°04' W 093°22'4 3.7
2016-Nov-28 02:33N 30°06' W 093°18'2 2.2
2016-Nov-28 01:34N 30°04' W 093°16'4 3.5
2016-Nov-28 00:33N 30°02' W 093°14'4 4.3
2016-Nov-27 23:33N 29°58' W 093°11'4 4.3
2016-Nov-27 22:32N 29°56' W 093°07'34 4.8
2016-Nov-27 15:31N 29°54' W 092°28'4 4.5
2016-Nov-27 14:33N 29°53' W 092°23'4 4.0
2016-Nov-27 13:33N 29°50' W 092°20'3 3.4
2016-Nov-27 12:33N 29°49' W 092°16'5 4.7
2016-Nov-27 11:33N 29°47' W 092°11'5 4.5
2016-Nov-27 10:33N 29°48' W 092°06'5 4.6
2016-Nov-27 09:33N 29°49' W 092°01'5 4.5
2016-Nov-27 08:33N 29°51' W 091°56'4 3.9
2016-Nov-27 07:29N 29°51' W 091°52'4 4.0
2016-Nov-27 06:30N 29°47' W 091°49'  
2016-Nov-24 14:27N 29°46' W 091°39'5 5.6
2016-Nov-24 13:34N 29°46' W 091°45'5 5.2
2016-Nov-24 12:33N 29°49' W 091°49'1 1.3
2016-Nov-24 11:27N 29°50' W 091°50'2 2.6
2016-Nov-24 10:33N 29°51' W 091°53'5 5.3
2016-Nov-24 09:32N 29°50' W 091°59'0 0.0
2016-Nov-24 08:32N 29°50' W 091°59'0 0.0
2016-Nov-24 07:32N 29°50' W 091°59'0 0.0
2016-Nov-24 06:29N 29°50' W 091°59'0 0.0
2016-Nov-24 05:32N 29°50' W 091°59'5 5.2
2016-Nov-24 04:33N 29°48' W 092°04'6 5.6
2016-Nov-24 03:33N 29°47' W 092°10'3 2.7
2016-Nov-24 02:33N 29°48' W 092°13'1 1.2
2016-Nov-24 01:32N 29°48' W 092°15'2 1.7
2016-Nov-24 00:32N 29°49' W 092°16'0 0.0
2016-Nov-23 23:31N 29°49' W 092°16'3 3.6
2016-Nov-23 22:34N 29°51' W 092°20'6 6.2
2016-Nov-23 21:33N 29°53' W 092°26'31 4.9
2016-Nov-23 15:17N 29°56' W 093°01'4 6.1
2016-Nov-23 14:33N 29°56' W 093°07'5 4.9
2016-Nov-23 13:33N 29°58' W 093°12'5 5.2
2016-Nov-23 12:33N 30°02' W 093°16'4 3.4
2016-Nov-23 11:32N 30°05' W 093°18'1 1.2
2016-Nov-23 10:31N 30°06' W 093°19'0 0.0
2016-Nov-23 09:31N 30°06' W 093°19'0 0.0
2016-Nov-23 08:33N 30°06' W 093°19'5 4.5
2016-Nov-23 07:33N 30°04' W 093°23'6 5.6
2016-Nov-23 06:33N 30°04' W 093°30'  

Dump ship's entire track history